createdAt,value
2019-02-15T00:02:25.086Z,5.00
2019-02-15T00:04:55.266Z,5.00
2019-02-15T00:07:25.453Z,5.00
2019-02-15T00:09:55.690Z,5.10
2019-02-15T00:12:25.854Z,5.10
2019-02-15T00:14:56.012Z,5.00
2019-02-15T00:17:51.292Z,5.00
2019-02-15T00:20:29.427Z,5.00
2019-02-15T00:22:59.657Z,5.00
2019-02-15T00:25:29.872Z,5.10
2019-02-15T00:28:00.047Z,5.00
2019-02-15T00:30:30.191Z,5.00
2019-02-15T00:33:00.431Z,4.90
2019-02-15T00:35:30.611Z,4.80
2019-02-15T00:38:00.735Z,4.90
2019-02-15T00:40:30.916Z,4.80
2019-02-15T00:43:01.039Z,4.80
2019-02-15T00:45:32.776Z,4.80
2019-02-15T00:48:06.849Z,4.80
2019-02-15T00:50:51.491Z,4.90
2019-02-15T00:53:46.495Z,4.80
2019-02-15T00:56:50.736Z,4.70
2019-02-15T00:59:32.441Z,4.70
2019-02-15T01:02:24.324Z,4.70
2019-02-15T01:05:04.995Z,4.70
2019-02-15T01:07:54.074Z,4.70
2019-02-15T01:10:33.214Z,4.60
2019-02-15T01:13:07.237Z,4.50
2019-02-15T01:15:37.412Z,4.40
2019-02-15T01:18:07.532Z,4.40
2019-02-15T01:20:37.694Z,4.40
2019-02-15T01:23:07.815Z,4.40
2019-02-15T01:26:11.868Z,4.30
2019-02-15T01:28:49.667Z,4.30
2019-02-15T01:31:34.967Z,4.10
2019-02-15T01:34:22.432Z,4.20
2019-02-15T01:37:01.829Z,4.20
2019-02-15T01:39:43.952Z,4.20
2019-02-15T01:42:22.352Z,4.10
2019-02-15T01:45:03.336Z,4.10
2019-02-15T01:47:37.461Z,4.30
2019-02-15T01:50:07.802Z,4.40
2019-02-15T01:52:37.919Z,4.50
2019-02-15T01:55:08.076Z,4.50
2019-02-15T01:57:38.245Z,4.50
2019-02-15T02:00:11.210Z,4.40
2019-02-15T02:02:41.397Z,4.30
2019-02-15T02:05:11.618Z,4.20
2019-02-15T02:07:41.778Z,4.10
2019-02-15T02:10:12.110Z,4.00
2019-02-15T02:12:42.358Z,4.00
2019-02-15T02:15:12.507Z,3.90
2019-02-15T02:17:42.663Z,3.90
2019-02-15T02:20:12.796Z,3.90
2019-02-15T02:22:42.923Z,3.90
2019-02-15T02:25:13.148Z,3.90
2019-02-15T02:27:43.301Z,3.90
2019-02-15T02:30:13.573Z,3.90
2019-02-15T02:32:43.699Z,3.90
2019-02-15T02:35:13.863Z,4.00
2019-02-15T02:37:43.987Z,4.10
2019-02-15T02:40:14.124Z,4.10
2019-02-15T02:42:44.331Z,4.00
2019-02-15T02:45:14.513Z,3.80
2019-02-15T02:47:44.644Z,3.70
2019-02-15T02:50:14.815Z,3.70
2019-02-15T02:52:44.975Z,3.80
2019-02-15T02:55:17.990Z,4.00
2019-02-15T02:57:48.143Z,4.20
2019-02-15T03:00:18.328Z,4.10
2019-02-15T03:02:48.446Z,4.10
2019-02-15T03:05:18.591Z,4.10
2019-02-15T03:07:48.735Z,4.00
2019-02-15T03:10:20.355Z,3.80
2019-02-15T03:12:51.411Z,3.70
2019-02-15T03:15:21.536Z,3.60
2019-02-15T03:17:51.689Z,3.50
2019-02-15T03:20:30.994Z,3.60
2019-02-15T03:22:53.727Z,3.50
2019-02-15T03:25:23.922Z,3.60
2019-02-15T03:27:54.129Z,3.60
2019-02-15T03:30:24.303Z,3.60
2019-02-15T03:32:54.505Z,3.60
2019-02-15T03:35:24.723Z,3.50
2019-02-15T03:38:13.800Z,3.50
2019-02-15T03:40:46.603Z,3.50
2019-02-15T03:43:16.742Z,3.50
2019-02-15T03:45:47.661Z,3.50
2019-02-15T03:48:17.808Z,3.50
2019-02-15T03:50:47.957Z,3.50
2019-02-15T03:53:18.095Z,3.50
2019-02-15T03:55:48.249Z,3.40
2019-02-15T03:58:18.403Z,3.40
2019-02-15T04:00:48.538Z,3.30
2019-02-15T04:03:18.804Z,3.20
2019-02-15T04:05:48.951Z,3.20
2019-02-15T04:08:19.110Z,3.20
2019-02-15T04:10:49.239Z,3.30
2019-02-15T04:13:19.399Z,3.20
2019-02-15T04:15:49.547Z,3.20
2019-02-15T04:18:19.680Z,3.10
2019-02-15T04:20:49.836Z,3.20
2019-02-15T04:23:20.750Z,3.20
2019-02-15T04:25:50.925Z,3.20
2019-02-15T04:28:21.081Z,3.20
2019-02-15T04:30:51.200Z,3.20
2019-02-15T04:33:21.408Z,3.20
2019-02-15T04:35:51.593Z,3.20
2019-02-15T04:38:21.746Z,3.20
2019-02-15T04:40:51.938Z,3.30
2019-02-15T04:43:22.098Z,3.30
2019-02-15T04:45:52.233Z,3.30
2019-02-15T04:48:22.401Z,3.40
2019-02-15T04:50:52.608Z,3.50
2019-02-15T04:53:22.792Z,3.50
2019-02-15T04:55:52.995Z,3.30
2019-02-15T04:58:23.141Z,3.20
2019-02-15T05:00:53.291Z,3.10
2019-02-15T05:03:23.424Z,3.10
2019-02-15T05:05:53.572Z,3.00
2019-02-15T05:08:23.711Z,2.90
2019-02-15T05:10:53.891Z,2.90
2019-02-15T05:13:24.042Z,3.00
2019-02-15T05:15:54.234Z,3.00
2019-02-15T05:18:24.423Z,3.10
2019-02-15T05:20:54.599Z,3.10
2019-02-15T05:23:24.787Z,3.20
2019-02-15T05:25:54.996Z,3.30
2019-02-15T05:28:25.290Z,3.30
2019-02-15T05:30:55.441Z,3.20
2019-02-15T05:33:25.612Z,3.10
2019-02-15T05:35:55.792Z,3.00
2019-02-15T05:38:25.972Z,2.90
2019-02-15T05:40:56.110Z,2.90
2019-02-15T05:43:26.268Z,2.90
2019-02-15T05:45:56.440Z,2.90
2019-02-15T05:48:26.583Z,2.90
2019-02-15T05:50:56.748Z,3.00
2019-02-15T05:53:26.901Z,2.90
2019-02-15T05:55:57.063Z,2.90
2019-02-15T05:58:27.228Z,2.90
2019-02-15T06:00:57.471Z,2.90
2019-02-15T06:03:27.651Z,2.80
2019-02-15T06:05:57.813Z,2.80
2019-02-15T06:08:27.996Z,2.90
2019-02-15T06:11:06.587Z,2.90
2019-02-15T06:13:30.151Z,2.90
2019-02-15T06:16:00.273Z,2.90
2019-02-15T06:18:30.454Z,2.90
2019-02-15T06:21:00.617Z,2.80
2019-02-15T06:23:30.866Z,2.90
2019-02-15T06:26:01.056Z,2.90
2019-02-15T06:28:31.183Z,2.90
2019-02-15T06:31:01.351Z,2.90
2019-02-15T06:33:32.643Z,2.90
2019-02-15T06:36:03.993Z,2.90
2019-02-15T06:38:35.047Z,2.90
2019-02-15T06:41:05.488Z,2.90
2019-02-15T06:43:35.718Z,2.90
2019-02-15T06:46:05.895Z,2.90
2019-02-15T06:48:36.083Z,2.90
2019-02-15T06:51:06.243Z,2.90
2019-02-15T06:53:36.398Z,2.80
2019-02-15T06:56:06.572Z,2.90
2019-02-15T06:58:45.456Z,2.90
2019-02-15T07:01:28.288Z,2.90
2019-02-15T07:04:06.342Z,3.10
2019-02-15T07:06:36.511Z,3.70
2019-02-15T07:09:06.866Z,4.10
2019-02-15T07:11:37.077Z,4.50
2019-02-15T07:14:07.208Z,4.80
2019-02-15T07:16:37.352Z,5.00
2019-02-15T07:19:07.524Z,5.30
2019-02-15T07:21:37.659Z,5.40
2019-02-15T07:24:07.803Z,5.60
2019-02-15T07:26:37.935Z,6.00
2019-02-15T07:29:08.103Z,6.00
2019-02-15T07:31:38.258Z,5.90
2019-02-15T07:34:08.415Z,5.80
2019-02-15T07:36:38.587Z,5.80
2019-02-15T07:39:08.909Z,5.70
2019-02-15T07:41:42.627Z,5.40
2019-02-15T07:44:12.773Z,5.30
2019-02-15T07:46:42.919Z,5.40
2019-02-15T07:49:13.072Z,5.60
2019-02-15T07:51:43.219Z,6.10
2019-02-15T07:54:13.375Z,6.70
2019-02-15T07:56:43.520Z,7.10
2019-02-15T07:59:13.661Z,7.60
2019-02-15T08:01:43.810Z,7.70
2019-02-15T08:04:13.937Z,7.70
2019-02-15T08:06:44.113Z,7.60
2019-02-15T08:09:14.252Z,7.80
2019-02-15T08:11:44.412Z,7.60
2019-02-15T08:14:17.361Z,7.40
2019-02-15T08:16:47.776Z,7.40
2019-02-15T08:19:21.063Z,7.40
2019-02-15T08:21:50.736Z,7.60
2019-02-15T08:24:20.889Z,7.60
2019-02-15T08:26:51.019Z,7.50
2019-02-15T08:29:21.167Z,7.60
2019-02-15T08:31:51.338Z,7.70
2019-02-15T08:34:21.488Z,7.80
2019-02-15T08:36:51.663Z,8.00
2019-02-15T08:39:21.810Z,7.80
2019-02-15T08:42:01.220Z,7.90
2019-02-15T08:44:23.847Z,8.10
2019-02-15T08:46:53.991Z,8.40
2019-02-15T08:49:24.140Z,8.30
2019-02-15T08:51:54.332Z,8.00
2019-02-15T08:54:25.904Z,7.90
2019-02-15T08:56:56.799Z,7.50
2019-02-15T08:59:27.003Z,8.10
2019-02-15T09:02:14.487Z,8.80
2019-02-15T09:04:47.223Z,8.80
2019-02-15T09:07:17.339Z,8.90
2019-02-15T09:09:47.507Z,8.70
2019-02-15T09:12:17.674Z,8.30
2019-02-15T09:14:48.058Z,8.50
2019-02-15T09:17:18.306Z,8.60
2019-02-15T09:19:48.470Z,8.30
2019-02-15T09:22:18.655Z,8.80
2019-02-15T09:24:48.848Z,9.30
2019-02-15T09:27:36.361Z,9.40
2019-02-15T09:30:08.247Z,9.10
2019-02-15T09:32:38.419Z,9.30
2019-02-15T09:35:09.376Z,9.30
2019-02-15T09:37:39.535Z,9.50
2019-02-15T09:40:09.849Z,9.80
2019-02-15T09:42:40.054Z,10.20
2019-02-15T09:45:11.567Z,10.30
2019-02-15T09:47:41.753Z,10.50
2019-02-15T09:50:12.363Z,10.40
2019-02-15T09:52:42.747Z,10.50
2019-02-15T09:55:12.931Z,10.60
2019-02-15T09:57:43.098Z,10.80
2019-02-15T10:00:13.392Z,11.00
2019-02-15T10:02:43.591Z,11.10
2019-02-15T10:05:13.714Z,11.50
2019-02-15T10:07:43.940Z,11.90
2019-02-15T10:10:14.096Z,12.00
2019-02-15T10:12:44.293Z,12.40
2019-02-15T10:15:14.491Z,12.30
2019-02-15T10:17:44.667Z,12.40
2019-02-15T10:20:14.871Z,12.60
2019-02-15T10:22:45.039Z,13.10
2019-02-15T10:25:15.264Z,13.00
2019-02-15T10:27:45.412Z,12.70
2019-02-15T10:30:15.599Z,12.90
2019-02-15T10:32:45.759Z,13.10
2019-02-15T10:35:15.939Z,13.30
2019-02-15T10:37:46.076Z,13.50
2019-02-15T10:40:16.294Z,13.70
2019-02-15T10:42:46.437Z,14.30
2019-02-15T10:45:16.609Z,14.20
2019-02-15T10:47:46.810Z,14.40
2019-02-15T10:50:16.943Z,14.20
2019-02-15T10:52:47.140Z,14.20
2019-02-15T10:55:17.311Z,14.20
2019-02-15T10:57:47.467Z,14.20
2019-02-15T11:00:19.361Z,14.50
2019-02-15T11:02:50.495Z,14.30
2019-02-15T11:05:20.921Z,14.40
2019-02-15T11:07:51.191Z,14.50
2019-02-15T11:10:21.444Z,14.70
2019-02-15T11:12:51.588Z,15.20
2019-02-15T11:15:21.816Z,15.10
2019-02-15T11:17:51.994Z,15.20
2019-02-15T11:20:22.265Z,15.10
2019-02-15T11:22:52.428Z,15.00
2019-02-15T11:25:22.607Z,15.10
2019-02-15T11:27:52.784Z,15.10
2019-02-15T11:30:23.009Z,15.20
2019-02-15T11:32:53.220Z,15.10
2019-02-15T11:35:23.448Z,15.20
2019-02-15T11:37:53.642Z,15.40
2019-02-15T11:40:23.824Z,15.20
2019-02-15T11:42:54.040Z,15.20
2019-02-15T11:45:24.209Z,15.60
2019-02-15T11:47:54.388Z,15.50
2019-02-15T11:50:24.579Z,15.30
2019-02-15T11:52:54.787Z,15.80
2019-02-15T11:55:24.968Z,15.60
2019-02-15T11:57:55.169Z,15.30
2019-02-15T12:00:32.003Z,15.70
2019-02-15T12:03:02.271Z,15.60
2019-02-15T12:05:32.484Z,15.90
2019-02-15T12:08:02.678Z,16.10
2019-02-15T12:10:32.859Z,16.10
2019-02-15T12:13:03.120Z,15.90
2019-02-15T12:15:33.296Z,15.80
2019-02-15T12:18:03.480Z,15.70
2019-02-15T12:20:33.557Z,15.60
2019-02-15T12:23:03.730Z,15.60
2019-02-15T12:25:33.924Z,16.00
2019-02-15T12:28:04.078Z,16.00
2019-02-15T12:30:34.280Z,16.10
2019-02-15T12:33:04.474Z,16.30
2019-02-15T12:35:34.677Z,16.20
2019-02-15T12:38:04.868Z,16.20
2019-02-15T12:40:35.007Z,16.20
2019-02-15T12:43:05.205Z,16.50
2019-02-15T12:45:35.360Z,16.80
2019-02-15T12:48:05.541Z,17.10
2019-02-15T12:50:35.699Z,16.60
2019-02-15T12:53:06.023Z,16.40
2019-02-15T12:55:36.250Z,16.20
2019-02-15T12:58:06.526Z,16.30
2019-02-15T13:00:36.657Z,16.50
2019-02-15T13:03:06.893Z,16.60
2019-02-15T13:05:37.134Z,16.80
2019-02-15T13:08:07.375Z,17.10
2019-02-15T13:10:42.014Z,17.20
2019-02-15T13:13:12.210Z,17.10
2019-02-15T13:15:44.024Z,17.00
2019-02-15T13:18:14.386Z,16.90
2019-02-15T13:20:44.535Z,17.10
2019-02-15T13:23:14.798Z,16.90
2019-02-15T13:25:44.993Z,17.10
2019-02-15T13:28:15.220Z,17.10
2019-02-15T13:30:45.487Z,17.10
2019-02-15T13:33:19.001Z,16.80
2019-02-15T13:35:49.207Z,16.70
2019-02-15T13:38:19.423Z,16.60
2019-02-15T13:40:49.618Z,16.70
2019-02-15T13:43:19.803Z,16.40
2019-02-15T13:45:49.948Z,16.30
2019-02-15T13:48:21.248Z,16.30
2019-02-15T13:50:51.465Z,16.10
2019-02-15T13:53:21.668Z,16.10
2019-02-15T13:55:52.121Z,16.10
2019-02-15T13:58:22.536Z,16.00
2019-02-15T14:00:52.728Z,15.90
2019-02-15T14:03:22.996Z,16.10
2019-02-15T14:05:53.218Z,16.30
2019-02-15T14:08:23.427Z,16.10
2019-02-15T14:10:53.642Z,16.00
2019-02-15T14:13:23.908Z,16.00
2019-02-15T14:15:54.131Z,15.80
2019-02-15T14:18:24.339Z,15.60
2019-02-15T14:20:54.524Z,15.60
2019-02-15T14:23:24.681Z,15.60
2019-02-15T14:25:54.859Z,15.60
2019-02-15T14:28:25.091Z,15.60
2019-02-15T14:30:55.274Z,15.50
2019-02-15T14:33:25.440Z,15.50
2019-02-15T14:35:55.598Z,15.40
2019-02-15T14:38:25.759Z,15.40
2019-02-15T14:40:55.929Z,15.30
2019-02-15T14:43:26.104Z,15.30
2019-02-15T14:45:56.252Z,15.30
2019-02-15T14:48:26.453Z,15.20
2019-02-15T14:50:56.715Z,15.20
2019-02-15T14:53:26.876Z,15.20
2019-02-15T14:55:58.011Z,15.20
2019-02-15T14:58:28.160Z,15.20
2019-02-15T15:00:58.333Z,15.10
2019-02-15T15:03:28.478Z,15.20
2019-02-15T15:05:58.648Z,15.20
2019-02-15T15:08:30.725Z,15.10
2019-02-15T15:11:00.802Z,15.10
2019-02-15T15:13:31.460Z,15.00
2019-02-15T15:16:01.869Z,15.00
2019-02-15T15:18:32.240Z,15.00
2019-02-15T15:21:02.459Z,15.00
2019-02-15T15:23:32.604Z,15.00
2019-02-15T15:26:11.572Z,15.00
2019-02-15T15:28:34.640Z,14.90
2019-02-15T15:31:04.820Z,14.80
2019-02-15T15:33:34.974Z,14.70
2019-02-15T15:36:05.139Z,14.60
2019-02-15T15:38:35.288Z,14.60
2019-02-15T15:41:05.502Z,14.60
2019-02-15T15:43:35.649Z,14.60
2019-02-15T15:46:05.820Z,14.50
2019-02-15T15:48:36.010Z,14.50
2019-02-15T15:51:06.211Z,14.60
2019-02-15T15:53:36.371Z,14.50
2019-02-15T15:56:06.532Z,14.40
2019-02-15T15:58:36.688Z,14.30
2019-02-15T16:01:06.844Z,14.20
2019-02-15T16:03:37.005Z,14.00
2019-02-15T16:06:07.164Z,14.00
2019-02-15T16:08:38.359Z,13.90
2019-02-15T16:11:08.548Z,13.80
2019-02-15T16:13:38.692Z,13.80
2019-02-15T16:16:08.909Z,13.70
2019-02-15T16:18:39.080Z,13.60
2019-02-15T16:21:09.242Z,13.60
2019-02-15T16:23:39.435Z,13.50
2019-02-15T16:26:09.596Z,13.40
2019-02-15T16:28:39.769Z,13.40
2019-02-15T16:31:09.926Z,13.30
2019-02-15T16:33:40.083Z,13.10
2019-02-15T16:36:10.283Z,13.00
2019-02-15T16:39:12.773Z,12.90
2019-02-15T16:41:30.271Z,12.80
2019-02-15T16:44:00.441Z,12.70
2019-02-15T16:46:30.658Z,12.70
2019-02-15T16:49:00.879Z,12.50
2019-02-15T16:51:31.094Z,12.40
2019-02-15T16:54:01.247Z,12.30
2019-02-15T16:56:31.474Z,12.30
2019-02-15T16:59:01.722Z,12.30
2019-02-15T17:01:31.908Z,12.40
2019-02-15T17:04:02.141Z,12.30
2019-02-15T17:06:32.302Z,12.20
2019-02-15T17:09:03.486Z,12.10
2019-02-15T17:11:34.612Z,11.90
2019-02-15T17:14:04.782Z,11.80
2019-02-15T17:16:41.650Z,11.70
2019-02-15T17:19:12.911Z,11.60
2019-02-15T17:21:43.119Z,11.70
2019-02-15T17:24:13.268Z,11.70
2019-02-15T17:26:43.420Z,11.60
2019-02-15T17:29:13.581Z,11.60
2019-02-15T17:31:43.763Z,11.60
2019-02-15T17:34:13.933Z,11.50
2019-02-15T17:36:44.112Z,11.60
2019-02-15T17:39:14.348Z,11.40
2019-02-15T17:41:44.529Z,11.40
2019-02-15T17:44:14.743Z,11.30
2019-02-15T17:46:44.913Z,11.30
2019-02-15T17:49:15.082Z,11.30
2019-02-15T17:51:45.256Z,11.30
2019-02-15T17:54:15.446Z,11.40
2019-02-15T17:56:45.604Z,11.30
2019-02-15T17:59:15.783Z,11.30
2019-02-15T18:01:45.956Z,11.10
2019-02-15T18:04:16.146Z,11.20
2019-02-15T18:06:46.460Z,11.10
2019-02-15T18:09:16.685Z,11.00
2019-02-15T18:11:47.020Z,11.10
2019-02-15T18:14:17.215Z,11.00
2019-02-15T18:16:47.467Z,11.00
2019-02-15T18:19:17.702Z,11.00
2019-02-15T18:21:47.872Z,10.90
2019-02-15T18:24:18.074Z,10.90
2019-02-15T18:26:48.254Z,10.70
2019-02-15T18:29:18.466Z,10.70
2019-02-15T18:31:48.641Z,10.60
2019-02-15T18:34:18.775Z,10.70
2019-02-15T18:36:49.986Z,10.60
2019-02-15T18:39:20.126Z,10.60
2019-02-15T18:41:50.343Z,10.50
2019-02-15T18:44:20.632Z,10.50
2019-02-15T18:46:50.940Z,10.40
2019-02-15T18:49:21.207Z,10.40
2019-02-15T18:51:51.439Z,10.30
2019-02-15T18:54:21.684Z,10.20
2019-02-15T18:56:51.957Z,10.00
2019-02-15T18:59:22.167Z,10.00
2019-02-15T19:01:52.319Z,9.90
2019-02-15T19:04:22.568Z,9.80
2019-02-15T19:06:53.738Z,9.70
2019-02-15T19:09:24.047Z,9.60
2019-02-15T19:11:54.282Z,9.50
2019-02-15T19:14:24.478Z,9.40
2019-02-15T19:16:54.768Z,9.40
2019-02-15T19:19:29.167Z,9.30
2019-02-15T19:21:57.033Z,9.20
2019-02-15T19:24:27.326Z,9.00
2019-02-15T19:26:57.543Z,8.80
2019-02-15T19:29:27.772Z,8.80
2019-02-15T19:31:57.953Z,8.70
2019-02-15T19:34:28.156Z,8.60
2019-02-15T19:36:58.724Z,8.70
2019-02-15T19:39:29.147Z,8.60
2019-02-15T19:41:59.324Z,8.50
2019-02-15T19:44:29.658Z,8.50
2019-02-15T19:46:59.872Z,8.50
2019-02-15T19:49:38.530Z,8.50
2019-02-15T19:52:02.083Z,8.40
2019-02-15T19:54:32.508Z,8.30
2019-02-15T19:57:02.652Z,8.20
2019-02-15T19:59:33.168Z,8.30
2019-02-15T20:02:03.356Z,8.20
2019-02-15T20:04:34.806Z,8.20
2019-02-15T20:07:05.007Z,8.30
2019-02-15T20:09:35.317Z,8.30
2019-02-15T20:12:05.480Z,8.30
2019-02-15T20:14:35.874Z,8.20
2019-02-15T20:17:06.085Z,8.20
2019-02-15T20:19:36.312Z,8.40
2019-02-15T20:22:06.435Z,8.50
2019-02-15T20:24:36.643Z,8.60
2019-02-15T20:27:06.828Z,8.60
2019-02-15T20:29:37.167Z,8.60
2019-02-15T20:32:07.363Z,8.50
2019-02-15T20:34:45.163Z,8.50
2019-02-15T20:37:09.432Z,8.50
2019-02-15T20:39:39.732Z,8.50
2019-02-15T20:42:09.898Z,8.50
2019-02-15T20:44:40.109Z,8.50
2019-02-15T20:47:10.243Z,8.50
2019-02-15T20:49:40.516Z,8.50
2019-02-15T20:52:11.724Z,8.60
2019-02-15T20:54:42.007Z,8.60
2019-02-15T20:57:12.247Z,8.60
2019-02-15T20:59:42.460Z,8.50
2019-02-15T21:02:14.361Z,8.50
2019-02-15T21:04:44.789Z,8.40
2019-02-15T21:07:15.040Z,8.30
2019-02-15T21:09:45.209Z,8.40
2019-02-15T21:12:15.548Z,8.60
2019-02-15T21:14:45.763Z,8.70
2019-02-15T21:17:16.025Z,8.60
2019-02-15T21:19:46.200Z,8.60
2019-02-15T21:22:18.027Z,8.60
2019-02-15T21:24:48.272Z,8.60
2019-02-15T21:27:18.536Z,8.50
2019-02-15T21:29:49.816Z,8.40
2019-02-15T21:32:20.149Z,8.50
2019-02-15T21:34:50.323Z,8.50
2019-02-15T21:37:20.588Z,8.40
2019-02-15T21:39:50.752Z,8.40
2019-02-15T21:42:24.383Z,8.50
2019-02-15T21:44:54.623Z,8.40
2019-02-15T21:47:24.805Z,8.40
2019-02-15T21:49:55.059Z,8.30
2019-02-15T21:52:25.288Z,8.30
2019-02-15T21:54:55.552Z,8.30
2019-02-15T21:57:25.707Z,8.20
2019-02-15T21:59:56.017Z,8.30
2019-02-15T22:02:26.275Z,8.20
2019-02-15T22:04:56.459Z,8.20
2019-02-15T22:07:26.596Z,8.20
2019-02-15T22:09:56.800Z,8.20
2019-02-15T22:12:26.951Z,8.20
2019-02-15T22:14:57.150Z,8.10
2019-02-15T22:17:27.322Z,8.00
2019-02-15T22:19:58.222Z,8.00
2019-02-15T22:22:28.518Z,8.00
2019-02-15T22:24:58.695Z,8.00
2019-02-15T22:27:28.947Z,7.90
2019-02-15T22:29:59.166Z,8.00
2019-02-15T22:32:30.363Z,8.00
2019-02-15T22:35:00.499Z,8.00
2019-02-15T22:37:30.870Z,7.90
2019-02-15T22:40:24.716Z,7.90
2019-02-15T22:42:54.913Z,7.80
2019-02-15T22:45:25.095Z,7.80
2019-02-15T22:47:55.281Z,7.80
2019-02-15T22:50:25.463Z,7.70
2019-02-15T22:52:55.686Z,7.70
2019-02-15T22:55:26.076Z,7.60
2019-02-15T22:57:56.239Z,7.50
2019-02-15T23:00:55.839Z,7.30
2019-02-15T23:03:26.868Z,7.20
2019-02-15T23:05:57.263Z,7.20
2019-02-15T23:08:27.466Z,7.10
2019-02-15T23:10:57.702Z,7.10
2019-02-15T23:13:27.868Z,7.10
2019-02-15T23:15:58.087Z,7.10
2019-02-15T23:18:28.240Z,7.10
2019-02-15T23:20:58.465Z,7.10
2019-02-15T23:23:28.692Z,7.20
2019-02-15T23:25:58.872Z,7.20
2019-02-15T23:28:29.056Z,7.20
2019-02-15T23:30:59.207Z,7.20
2019-02-15T23:33:29.363Z,7.20
2019-02-15T23:35:59.559Z,7.10
2019-02-15T23:38:29.733Z,7.10
2019-02-15T23:40:59.888Z,7.00
2019-02-15T23:43:30.051Z,6.90
2019-02-15T23:46:00.206Z,6.80
2019-02-15T23:48:30.346Z,6.50
2019-02-15T23:51:00.539Z,6.30
2019-02-15T23:53:30.660Z,6.40
2019-02-15T23:56:00.788Z,6.60
2019-02-15T23:58:30.974Z,6.60
